Time;durP1;ratioP1;P1;durP2;ratioP2;P2;SDS_P1;SDS_P2;PMS_P1;PMS_P2;Temp;Humidity;BMP_temperature;BMP_pressure;BME280_temperature;BME280_humidity;BME280_pressure;Samples;Min_cycle;Max_cycle;Signal;HPM_P1;HPM_P2
2022/05/24 00:00:16;;;;;;;5.53;3.38;;;;;;;;;;5117236;27;20038;-46
2022/05/24 00:02:42;;;;;;;5.93;4.65;;;;;;;;;;5118808;27;20051;-47
2022/05/24 00:05:09;;;;;;;6.18;3.05;;;;;;;;;;5118781;27;20438;-44
2022/05/24 00:07:35;;;;;;;3.65;2.25;;;;;;;;;;5114698;27;20047;-46
2022/05/24 00:10:00;;;;;;;16.83;4.75;;;;;;;;;;5108366;27;20059;-46
2022/05/24 00:12:26;;;;;;;6.95;3.75;;;;;;;;;;5121061;27;20070;-47
2022/05/24 00:17:36;;;;;;;10.63;4.95;;;;;;;;;;5105132;27;20055;-45
2022/05/24 00:20:02;;;;;;;15.50;4.43;;;;;;;;;;5116231;27;20031;-46
2022/05/24 00:22:27;;;;;;;5.78;4.53;;;;;;;;;;5119768;27;20059;-51
2022/05/24 00:24:54;;;;;;;10.02;3.97;;;;;;;;;;5117566;27;20040;-43
2022/05/24 00:27:20;;;;;;;4.13;3.03;;;;;;;;;;5111402;27;20039;-44
2022/05/24 00:29:45;;;;;;;4.03;3.70;;;;;;;;;;5112167;27;20040;-45
2022/05/24 00:32:10;;;;;;;7.28;5.07;;;;;;;;;;5105563;27;20041;-42
2022/05/24 00:34:36;;;;;;;5.88;3.97;;;;;;;;;;5111362;27;20055;-45
2022/05/24 00:37:01;;;;;;;4.45;3.53;;;;;;;;;;5110634;27;20135;-47
2022/05/24 00:39:26;;;;;;;6.50;4.15;;;;;;;;;;5117546;27;20069;-49
2022/05/24 00:41:56;;;;;;;4.28;3.58;;;;;;;;;;5113323;27;20035;-47
2022/05/24 00:44:24;;;;;;;11.07;4.33;;;;;;;;;;5117251;27;20031;-43
2022/05/24 00:47:01;;;;;;;4.38;2.92;;;;;;;;;;5110704;27;20280;-47
2022/05/24 00:49:41;;;;;;;7.55;3.85;;;;;;;;;;5107347;27;20055;-47
2022/05/24 00:52:09;;;;;;;7.13;4.10;;;;;;;;;;5108154;27;20459;-46
2022/05/24 00:54:34;;;;;;;5.47;3.25;;;;;;;;;;5110570;27;20552;-44
2022/05/24 00:57:03;;;;;;;13.13;3.95;;;;;;;;;;5118373;27;20192;-45
2022/05/24 00:59:31;;;;;;;4.57;3.10;;;;;;;;;;5112314;27;20123;-48
2022/05/24 01:01:57;;;;;;;5.07;3.83;;;;;;;;;;5104822;27;20070;-48
2022/05/24 01:04:23;;;;;;;7.15;4.35;;;;;;;;;;5116576;27;20445;-43
2022/05/24 01:06:49;;;;;;;5.15;3.35;;;;;;;;;;5114752;27;20052;-47
2022/05/24 01:09:18;;;;;;;5.22;3.90;;;;;;;;;;5116661;27;20088;-45
2022/05/24 01:11:46;;;;;;;7.82;4.75;;;;;;;;;;5120728;27;20055;-43
2022/05/24 01:14:13;;;;;;;5.25;3.63;;;;;;;;;;5115143;27;20054;-44
2022/05/24 01:16:39;;;;;;;5.80;4.75;;;;;;;;;;5113625;27;20572;-45
2022/05/24 01:19:06;;;;;;;15.20;4.20;;;;;;;;;;5115629;27;20135;-44
2022/05/24 01:21:31;;;;;;;5.85;2.90;;;;;;;;;;5114492;27;20075;-46
2022/05/24 01:24:16;;;;;;;4.82;3.22;;;;;;;;;;5113452;27;20173;-45
2022/05/24 01:26:55;;;;;;;7.47;3.78;;;;;;;;;;5116036;27;20116;-46
2022/05/24 01:29:22;;;;;;;9.00;4.97;;;;;;;;;;5118050;27;20137;-48
2022/05/24 01:37:17;;;;;;;5.65;4.45;;;;;;;;;;5121150;27;20133;-45
2022/05/24 01:39:43;;;;;;;10.98;5.88;;;;;;;;;;5120073;27;20154;-44
2022/05/24 01:42:10;;;;;;;13.60;4.28;;;;;;;;;;5102128;27;20054;-48
2022/05/24 01:44:35;;;;;;;16.33;6.15;;;;;;;;;;5117262;27;20075;-48
2022/05/24 01:47:00;;;;;;;9.55;5.20;;;;;;;;;;5115860;27;20377;-47
2022/05/24 01:49:30;;;;;;;9.07;4.95;;;;;;;;;;5118120;27;20043;-48
2022/05/24 01:51:58;;;;;;;8.77;5.20;;;;;;;;;;5110951;27;20550;-47
2022/05/24 01:54:24;;;;;;;5.40;4.03;;;;;;;;;;5107304;27;20020;-43
2022/05/24 01:56:49;;;;;;;10.57;4.38;;;;;;;;;;5111855;27;20506;-47
2022/05/24 01:59:15;;;;;;;9.30;4.63;;;;;;;;;;5102069;27;20072;-50
2022/05/24 02:01:45;;;;;;;6.75;4.18;;;;;;;;;;5114420;27;20039;-44
2022/05/24 02:04:10;;;;;;;7.57;4.60;;;;;;;;;;5118383;27;20121;-46
2022/05/24 02:06:35;;;;;;;10.10;5.97;;;;;;;;;;5119915;27;20162;-44
2022/05/24 02:09:01;;;;;;;6.90;5.85;;;;;;;;;;5102232;28;20104;-42
2022/05/24 02:11:28;;;;;;;9.43;5.18;;;;;;;;;;5118216;27;20074;-43
2022/05/24 02:14:04;;;;;;;6.85;5.28;;;;;;;;;;5117626;27;20051;-46
2022/05/24 02:16:32;;;;;;;6.47;4.00;;;;;;;;;;5108107;27;20174;-48
2022/05/24 02:18:57;;;;;;;8.05;4.25;;;;;;;;;;5118152;27;20078;-45
2022/05/24 02:21:23;;;;;;;5.03;4.03;;;;;;;;;;5118450;27;20081;-48
2022/05/24 02:23:49;;;;;;;19.55;4.97;;;;;;;;;;5118165;27;20068;-45
2022/05/24 02:26:15;;;;;;;5.65;4.13;;;;;;;;;;5112393;27;20122;-49
2022/05/24 02:28:41;;;;;;;4.95;3.17;;;;;;;;;;5111116;27;20050;-46
2022/05/24 02:31:08;;;;;;;7.35;5.03;;;;;;;;;;5114935;28;20519;-50
2022/05/24 02:33:34;;;;;;;8.80;4.00;;;;;;;;;;5108101;27;20066;-49
2022/05/24 02:35:59;;;;;;;4.53;3.00;;;;;;;;;;5115073;28;20040;-50
2022/05/24 02:38:25;;;;;;;6.18;5.15;;;;;;;;;;5117865;28;20577;-46
2022/05/24 02:43:35;;;;;;;7.20;4.38;;;;;;;;;;5120337;28;20120;-45
2022/05/24 02:46:00;;;;;;;6.03;3.47;;;;;;;;;;5113992;28;20129;-46
2022/05/24 02:48:25;;;;;;;5.72;4.25;;;;;;;;;;5115799;28;20086;-43
2022/05/24 02:50:51;;;;;;;10.95;5.70;;;;;;;;;;5117828;28;20058;-46
2022/05/24 02:53:16;;;;;;;4.30;3.78;;;;;;;;;;5117817;28;20570;-46
2022/05/24 02:55:42;;;;;;;7.85;4.00;;;;;;;;;;5119123;28;20130;-46
2022/05/24 02:58:07;;;;;;;4.15;3.53;;;;;;;;;;5109330;28;20559;-45
2022/05/24 03:00:33;;;;;;;8.13;4.45;;;;;;;;;;5113394;28;20043;-47
2022/05/24 03:02:58;;;;;;;9.25;3.13;;;;;;;;;;5102688;28;20040;-43
2022/05/24 03:05:24;;;;;;;12.70;4.80;;;;;;;;;;5118500;28;20560;-45
2022/05/24 03:10:33;;;;;;;4.68;3.85;;;;;;;;;;5116935;28;20063;-50
2022/05/24 03:15:44;;;;;;;9.20;4.70;;;;;;;;;;5116543;28;20126;-46
2022/05/24 03:18:11;;;;;;;9.68;5.28;;;;;;;;;;5108632;28;20042;-44
2022/05/24 03:20:37;;;;;;;9.93;4.38;;;;;;;;;;5115939;28;20043;-45
2022/05/24 03:23:02;;;;;;;10.65;5.47;;;;;;;;;;5118443;28;20038;-43
2022/05/24 03:25:28;;;;;;;4.90;4.10;;;;;;;;;;5117726;28;20047;-45
2022/05/24 03:27:53;;;;;;;5.80;5.15;;;;;;;;;;5120007;28;20051;-47
2022/05/24 03:30:18;;;;;;;16.23;5.07;;;;;;;;;;5115648;28;20059;-47
2022/05/24 03:32:44;;;;;;;11.55;6.13;;;;;;;;;;5117490;27;20096;-48
2022/05/24 03:35:12;;;;;;;11.45;5.25;;;;;;;;;;5119430;28;20040;-47
2022/05/24 03:37:38;;;;;;;7.30;6.15;;;;;;;;;;5117384;28;20043;-48
2022/05/24 03:40:04;;;;;;;5.18;4.28;;;;;;;;;;5096549;28;20051;-45
2022/05/24 03:42:29;;;;;;;6.72;5.18;;;;;;;;;;5120204;27;20043;-44
2022/05/24 03:44:55;;;;;;;4.15;3.72;;;;;;;;;;5104002;27;20445;-47
2022/05/24 03:47:20;;;;;;;8.38;5.03;;;;;;;;;;5109342;27;20047;-49
2022/05/24 03:49:45;;;;;;;10.38;5.57;;;;;;;;;;5120968;27;20252;-43
2022/05/24 03:52:11;;;;;;;18.45;4.18;;;;;;;;;;5120810;27;20510;-46
2022/05/24 03:54:36;;;;;;;8.85;5.25;;;;;;;;;;5120364;27;20036;-48
2022/05/24 03:59:45;;;;;;;8.95;5.28;;;;;;;;;;5121337;27;20539;-46
2022/05/24 04:02:11;;;;;;;8.07;3.72;;;;;;;;;;5122306;27;20524;-45
2022/05/24 04:04:36;;;;;;;8.82;6.43;;;;;;;;;;5115781;27;20046;-47
2022/05/24 04:07:02;;;;;;;8.10;6.38;;;;;;;;;;5111741;27;20039;-44
2022/05/24 04:09:27;;;;;;;8.18;5.22;;;;;;;;;;5098484;27;20043;-48
2022/05/24 04:11:54;;;;;;;5.07;4.47;;;;;;;;;;5121740;27;20058;-45
2022/05/24 04:14:19;;;;;;;7.43;5.15;;;;;;;;;;5113687;27;20035;-46
2022/05/24 04:16:44;;;;;;;7.40;5.53;;;;;;;;;;5119435;27;20039;-44
2022/05/24 04:19:10;;;;;;;9.95;5.50;;;;;;;;;;5117781;27;20357;-48
2022/05/24 04:21:35;;;;;;;26.88;8.93;;;;;;;;;;5119632;27;20043;-48
2022/05/24 04:24:00;;;;;;;13.38;6.85;;;;;;;;;;5116519;27;20127;-44
2022/05/24 04:26:26;;;;;;;16.88;6.28;;;;;;;;;;5119794;27;20083;-45
2022/05/24 04:28:51;;;;;;;9.00;6.78;;;;;;;;;;5123193;27;20053;-46
2022/05/24 04:31:16;;;;;;;17.50;5.63;;;;;;;;;;5119688;27;20051;-46
2022/05/24 04:33:42;;;;;;;13.00;4.85;;;;;;;;;;5117358;27;20054;-49
2022/05/24 04:36:07;;;;;;;8.52;5.13;;;;;;;;;;5116776;27;20190;-47
2022/05/24 04:38:32;;;;;;;15.18;5.82;;;;;;;;;;5121373;27;20043;-48
2022/05/24 04:43:41;;;;;;;6.53;4.07;;;;;;;;;;5119517;27;20130;-49
2022/05/24 04:46:06;;;;;;;9.35;5.28;;;;;;;;;;5113362;27;20061;-45
2022/05/24 04:48:32;;;;;;;19.77;5.70;;;;;;;;;;5116780;27;20058;-47
2022/05/24 04:50:57;;;;;;;16.15;5.05;;;;;;;;;;5118741;27;20112;-48
2022/05/24 04:53:24;;;;;;;4.20;3.80;;;;;;;;;;5114052;27;20452;-48
2022/05/24 04:55:49;;;;;;;9.80;5.32;;;;;;;;;;5118559;27;20042;-49
2022/05/24 04:58:15;;;;;;;6.57;5.80;;;;;;;;;;5117529;27;20134;-45
2022/05/24 05:00:40;;;;;;;4.25;3.13;;;;;;;;;;5120426;27;20054;-45
2022/05/24 05:03:07;;;;;;;4.68;3.42;;;;;;;;;;5121437;27;20039;-48
2022/05/24 05:05:33;;;;;;;10.10;3.50;;;;;;;;;;5122031;27;20107;-48
2022/05/24 05:07:58;;;;;;;12.10;4.15;;;;;;;;;;5121430;27;20071;-45
2022/05/24 05:10:23;;;;;;;5.05;3.45;;;;;;;;;;5116339;27;20241;-47
2022/05/24 05:12:49;;;;;;;4.38;2.95;;;;;;;;;;5114950;27;20043;-47
2022/05/24 05:15:15;;;;;;;11.55;3.35;;;;;;;;;;5120004;27;20054;-47
2022/05/24 05:17:40;;;;;;;6.25;3.38;;;;;;;;;;5116602;27;20040;-52
2022/05/24 05:20:06;;;;;;;8.32;3.88;;;;;;;;;;5121765;27;20095;-48
2022/05/24 05:22:31;;;;;;;7.65;2.75;;;;;;;;;;5118233;27;20119;-45
2022/05/24 05:24:56;;;;;;;7.63;2.58;;;;;;;;;;5117588;27;20508;-45
2022/05/24 05:27:22;;;;;;;6.93;2.72;;;;;;;;;;5115714;27;20511;-48
2022/05/24 05:32:31;;;;;;;4.50;2.22;;;;;;;;;;5110007;27;20096;-48
2022/05/24 05:34:57;;;;;;;3.50;2.63;;;;;;;;;;5119995;27;20472;-47
2022/05/24 05:37:23;;;;;;;14.77;2.53;;;;;;;;;;5119740;27;20060;-46
2022/05/24 05:39:48;;;;;;;11.60;2.80;;;;;;;;;;5101669;27;20047;-44
2022/05/24 05:42:13;;;;;;;14.32;3.40;;;;;;;;;;5106203;27;20120;-49
2022/05/24 05:44:39;;;;;;;3.72;2.47;;;;;;;;;;5107004;27;20131;-48
2022/05/24 05:47:05;;;;;;;3.92;1.67;;;;;;;;;;5113087;27;20518;-48
2022/05/24 05:49:30;;;;;;;6.25;2.28;;;;;;;;;;5121935;27;20443;-47
2022/05/24 05:51:55;;;;;;;3.85;1.88;;;;;;;;;;5105895;27;20713;-45
2022/05/24 05:54:21;;;;;;;6.05;2.90;;;;;;;;;;5108755;27;20042;-51
2022/05/24 05:56:47;;;;;;;15.23;2.40;;;;;;;;;;5107927;27;20039;-47
2022/05/24 05:59:12;;;;;;;14.13;2.65;;;;;;;;;;5117140;27;20517;-47
2022/05/24 06:01:37;;;;;;;2.72;1.98;;;;;;;;;;5117772;27;20038;-50
2022/05/24 06:04:03;;;;;;;6.72;2.30;;;;;;;;;;5118801;27;20039;-45
2022/05/24 06:06:31;;;;;;;3.65;1.83;;;;;;;;;;5106652;27;20550;-44
2022/05/24 06:08:56;;;;;;;5.32;2.10;;;;;;;;;;5117762;27;20124;-48
2022/05/24 06:11:23;;;;;;;8.27;2.13;;;;;;;;;;5114167;27;20875;-49
2022/05/24 06:13:49;;;;;;;11.48;2.63;;;;;;;;;;5114172;27;20054;-50
2022/05/24 06:16:14;;;;;;;13.15;2.88;;;;;;;;;;5117435;27;20048;-46
2022/05/24 06:18:39;;;;;;;14.60;3.30;;;;;;;;;;5118277;27;20066;-43
2022/05/24 06:21:05;;;;;;;4.88;2.28;;;;;;;;;;5116381;27;20095;-44
2022/05/24 06:23:30;;;;;;;5.78;1.85;;;;;;;;;;5115342;27;20054;-46
2022/05/24 06:25:55;;;;;;;6.20;2.78;;;;;;;;;;5114119;27;20049;-49
2022/05/24 06:28:21;;;;;;;7.82;3.35;;;;;;;;;;5120019;27;20051;-44
2022/05/24 06:30:46;;;;;;;18.02;3.17;;;;;;;;;;5097316;28;20412;-47
2022/05/24 06:33:11;;;;;;;5.13;2.65;;;;;;;;;;5119022;28;20546;-46
2022/05/24 06:35:38;;;;;;;11.82;2.58;;;;;;;;;;5116061;28;20058;-47
2022/05/24 06:38:03;;;;;;;7.57;2.35;;;;;;;;;;5115344;28;20044;-47
2022/05/24 06:40:29;;;;;;;7.18;3.67;;;;;;;;;;5116022;28;20043;-49
2022/05/24 06:42:54;;;;;;;10.40;2.35;;;;;;;;;;5104734;27;20067;-46
2022/05/24 06:45:20;;;;;;;5.03;2.47;;;;;;;;;;5116200;28;20050;-46
2022/05/24 06:47:45;;;;;;;4.22;2.45;;;;;;;;;;5117365;28;20062;-61
2022/05/24 06:50:11;;;;;;;13.95;3.00;;;;;;;;;;5116104;28;20449;-63
2022/05/24 06:52:37;;;;;;;6.65;2.22;;;;;;;;;;5113263;28;20505;-63
2022/05/24 06:55:02;;;;;;;11.70;2.30;;;;;;;;;;5114065;28;20155;-62
2022/05/24 06:57:28;;;;;;;2.30;1.77;;;;;;;;;;5106936;28;20502;-62
2022/05/24 07:02:37;;;;;;;6.50;1.92;;;;;;;;;;5116310;28;20143;-62
2022/05/24 07:05:07;;;;;;;5.72;3.03;;;;;;;;;;5117543;28;20121;-62
2022/05/24 07:07:33;;;;;;;4.65;2.55;;;;;;;;;;5115497;28;20131;-64
2022/05/24 07:09:59;;;;;;;7.90;2.38;;;;;;;;;;5118640;27;20154;-63
2022/05/24 07:12:24;;;;;;;13.15;3.45;;;;;;;;;;5109735;27;20583;-63
2022/05/24 07:14:50;;;;;;;4.00;2.08;;;;;;;;;;5116307;28;20047;-65
2022/05/24 07:17:17;;;;;;;2.88;1.60;;;;;;;;;;5111115;27;20035;-66
2022/05/24 07:19:44;;;;;;;9.98;1.77;;;;;;;;;;5112974;27;20097;-65
2022/05/24 07:22:10;;;;;;;4.28;1.70;;;;;;;;;;5119805;27;20036;-65
2022/05/24 07:24:35;;;;;;;3.67;1.83;;;;;;;;;;5118155;27;20182;-65
2022/05/24 07:27:01;;;;;;;49.78;6.75;;;;;;;;;;5117691;27;20044;-60
2022/05/24 07:29:26;;;;;;;6.50;3.20;;;;;;;;;;5120130;27;20143;-61
2022/05/24 07:31:52;;;;;;;7.50;2.95;;;;;;;;;;5122900;27;20173;-61
2022/05/24 07:34:17;;;;;;;17.00;3.35;;;;;;;;;;5106830;27;20054;-60
2022/05/24 07:36:42;;;;;;;6.88;2.00;;;;;;;;;;5119397;27;20041;-59
2022/05/24 07:39:08;;;;;;;3.35;2.13;;;;;;;;;;5114060;27;20047;-60
2022/05/24 07:47:02;;;;;;;5.10;2.75;;;;;;;;;;5122407;27;20060;-63
2022/05/24 07:49:28;;;;;;;15.80;3.13;;;;;;;;;;5098635;27;20047;-63
2022/05/24 07:51:54;;;;;;;7.22;3.35;;;;;;;;;;5119485;27;20031;-62
2022/05/24 07:54:19;;;;;;;14.40;3.47;;;;;;;;;;5112685;27;20043;-63
2022/05/24 07:56:44;;;;;;;3.53;2.08;;;;;;;;;;5108747;27;20043;-61
2022/05/24 07:59:09;;;;;;;12.95;3.83;;;;;;;;;;5116795;27;20134;-64
2022/05/24 08:01:36;;;;;;;8.48;3.70;;;;;;;;;;5107757;27;20063;-64
2022/05/24 08:04:02;;;;;;;6.35;2.47;;;;;;;;;;5116809;27;20563;-64
2022/05/24 08:06:27;;;;;;;10.68;2.80;;;;;;;;;;5116898;27;20042;-64
2022/05/24 08:08:52;;;;;;;4.75;2.47;;;;;;;;;;5116782;27;20126;-64
2022/05/24 08:11:18;;;;;;;15.85;2.80;;;;;;;;;;5116334;27;20082;-64
2022/05/24 08:13:43;;;;;;;7.03;2.95;;;;;;;;;;5119074;27;20055;-64
2022/05/24 08:16:08;;;;;;;35.45;5.95;;;;;;;;;;5100255;27;20423;-64
2022/05/24 08:18:34;;;;;;;2.85;1.60;;;;;;;;;;5116385;27;20102;-64
2022/05/24 08:20:59;;;;;;;31.70;3.05;;;;;;;;;;5105800;27;20063;-62
2022/05/24 08:23:27;;;;;;;6.78;3.72;;;;;;;;;;5108557;27;20047;-64
2022/05/24 08:25:54;;;;;;;12.82;3.42;;;;;;;;;;5114013;27;20164;-63
2022/05/24 08:28:19;;;;;;;24.65;3.97;;;;;;;;;;5113510;27;20090;-64
2022/05/24 08:30:44;;;;;;;23.60;4.80;;;;;;;;;;5116256;27;20035;-64
2022/05/24 08:33:11;;;;;;;9.65;2.70;;;;;;;;;;5118132;27;20047;-64
2022/05/24 08:35:37;;;;;;;10.43;2.78;;;;;;;;;;5116464;27;20058;-63
2022/05/24 08:38:03;;;;;;;11.23;4.05;;;;;;;;;;5119681;27;20039;-64
2022/05/24 08:40:28;;;;;;;14.52;2.90;;;;;;;;;;5105963;27;20039;-64
2022/05/24 08:43:13;;;;;;;10.07;2.80;;;;;;;;;;5113667;27;20039;-64
2022/05/24 08:48:52;;;;;;;28.27;8.60;;;;;;;;;;5108421;27;20045;-64
2022/05/24 08:51:27;;;;;;;3.70;2.58;;;;;;;;;;5107063;27;20090;-64
2022/05/24 08:53:53;;;;;;;12.65;2.80;;;;;;;;;;5114744;27;20051;-63
2022/05/24 08:56:21;;;;;;;26.85;6.85;;;;;;;;;;5120462;27;20039;-63
2022/05/24 08:58:50;;;;;;;20.10;4.28;;;;;;;;;;5118342;27;20523;-63
2022/05/24 09:01:27;;;;;;;4.93;1.83;;;;;;;;;;5112823;27;20042;-64
2022/05/24 09:03:52;;;;;;;12.65;4.50;;;;;;;;;;5116036;27;20053;-62
2022/05/24 09:06:30;;;;;;;10.00;2.85;;;;;;;;;;5113791;27;20031;-62
2022/05/24 09:08:58;;;;;;;4.80;2.28;;;;;;;;;;5116174;27;20066;-62
2022/05/24 09:11:23;;;;;;;32.72;6.30;;;;;;;;;;5118529;27;20059;-62
2022/05/24 09:14:07;;;;;;;7.50;3.00;;;;;;;;;;5118860;27;20042;-62
2022/05/24 09:16:34;;;;;;;15.05;4.45;;;;;;;;;;5118378;27;20043;-62
2022/05/24 09:19:18;;;;;;;16.42;4.63;;;;;;;;;;5117012;27;20055;-62
2022/05/24 09:21:44;;;;;;;7.47;2.55;;;;;;;;;;5117466;27;20061;-62
2022/05/24 09:24:28;;;;;;;8.93;3.00;;;;;;;;;;5118899;27;20166;-62
2022/05/24 09:27:14;;;;;;;10.52;2.33;;;;;;;;;;5114484;27;20043;-62
2022/05/24 09:29:58;;;;;;;5.45;2.22;;;;;;;;;;5113127;27;20073;-63
2022/05/24 09:32:43;;;;;;;10.60;3.60;;;;;;;;;;5109866;27;20058;-62
2022/05/24 09:35:08;;;;;;;19.52;3.60;;;;;;;;;;5104744;27;20075;-62
2022/05/24 09:37:34;;;;;;;10.25;3.50;;;;;;;;;;5117319;27;20040;-62
2022/05/24 09:40:05;;;;;;;16.00;2.50;;;;;;;;;;5111653;27;20047;-62
2022/05/24 09:42:32;;;;;;;7.22;3.13;;;;;;;;;;5114193;27;20125;-62
2022/05/24 09:44:57;;;;;;;31.77;6.63;;;;;;;;;;5107595;27;20064;-62
2022/05/24 09:47:29;;;;;;;12.30;3.88;;;;;;;;;;5106268;27;20570;-62
2022/05/24 09:50:14;;;;;;;10.40;1.63;;;;;;;;;;5118220;27;20169;-63
2022/05/24 09:52:39;;;;;;;9.10;3.17;;;;;;;;;;5102187;27;20509;-63
2022/05/24 09:55:05;;;;;;;16.92;3.15;;;;;;;;;;5113108;27;20127;-60
2022/05/24 09:57:32;;;;;;;8.60;2.35;;;;;;;;;;5114875;27;20145;-61
2022/05/24 10:00:01;;;;;;;7.40;2.35;;;;;;;;;;5117887;27;20039;-62
2022/05/24 10:02:29;;;;;;;11.63;3.17;;;;;;;;;;5116644;27;20092;-62
2022/05/24 10:04:54;;;;;;;5.93;3.22;;;;;;;;;;5119029;27;20031;-62
2022/05/24 10:07:24;;;;;;;7.00;2.85;;;;;;;;;;5119646;27;20057;-63
2022/05/24 10:09:54;;;;;;;7.07;3.07;;;;;;;;;;5116168;27;20062;-62
2022/05/24 10:12:26;;;;;;;31.90;4.90;;;;;;;;;;5117931;27;20688;-62
2022/05/24 10:14:57;;;;;;;19.77;2.90;;;;;;;;;;5119293;27;20058;-62
2022/05/24 10:17:25;;;;;;;16.67;3.63;;;;;;;;;;5116947;27;20496;-61
2022/05/24 10:20:09;;;;;;;19.33;5.50;;;;;;;;;;5119501;27;20031;-63
2022/05/24 10:22:43;;;;;;;18.88;4.15;;;;;;;;;;5117073;27;20039;-63
2022/05/24 10:25:17;;;;;;;4.35;2.42;;;;;;;;;;5117183;27;20043;-63
2022/05/24 10:27:49;;;;;;;6.30;2.28;;;;;;;;;;5117510;27;20047;-63
2022/05/24 10:30:24;;;;;;;14.30;3.47;;;;;;;;;;5097937;27;20559;-63
2022/05/24 10:38:50;;;;;;;7.90;3.08;;;;;;;;;;5118973;28;20566;-63
2022/05/24 10:41:16;;;;;;;15.18;3.65;;;;;;;;;;5118549;28;20031;-60
2022/05/24 10:44:01;;;;;;;7.05;3.15;;;;;;;;;;5120601;27;20050;-62
2022/05/24 10:46:30;;;;;;;5.35;2.67;;;;;;;;;;5110270;27;20055;-62
2022/05/24 10:49:21;;;;;;;7.10;2.47;;;;;;;;;;5102912;27;20039;-62
2022/05/24 10:51:53;;;;;;;12.63;2.50;;;;;;;;;;5087348;27;20070;-62
2022/05/24 10:54:29;;;;;;;4.95;2.15;;;;;;;;;;5118858;27;20048;-62
2022/05/24 10:57:00;;;;;;;8.15;2.20;;;;;;;;;;5119212;27;20051;-62
2022/05/24 10:59:25;;;;;;;8.70;3.05;;;;;;;;;;5094727;28;20066;-62
2022/05/24 11:02:02;;;;;;;6.68;2.42;;;;;;;;;;5118360;27;20500;-62
2022/05/24 11:04:49;;;;;;;14.00;3.00;;;;;;;;;;5112305;27;20044;-62
2022/05/24 11:07:16;;;;;;;3.47;1.98;;;;;;;;;;5120385;27;20551;-62
2022/05/24 11:10:06;;;;;;;7.00;3.65;;;;;;;;;;5110360;27;20151;-62
2022/05/24 11:12:35;;;;;;;7.25;2.08;;;;;;;;;;5111336;27;20411;-62
2022/05/24 11:15:06;;;;;;;11.02;1.80;;;;;;;;;;5103932;27;20051;-62
2022/05/24 11:17:31;;;;;;;9.35;3.20;;;;;;;;;;5112235;27;20140;-62
2022/05/24 11:19:57;;;;;;;3.45;1.88;;;;;;;;;;5119600;27;20130;-62
2022/05/24 11:22:28;;;;;;;6.75;2.88;;;;;;;;;;5114299;27;20580;-62
2022/05/24 11:24:59;;;;;;;5.28;2.58;;;;;;;;;;5122623;27;20043;-62
2022/05/24 11:27:44;;;;;;;13.90;4.05;;;;;;;;;;5122713;27;20484;-62
2022/05/24 11:30:25;;;;;;;7.20;2.83;;;;;;;;;;5122590;27;20108;-62
2022/05/24 11:32:50;;;;;;;;;;;;;;;;;;5120643;27;20036;-62
2022/05/24 11:35:19;;;;;;;10.50;4.13;;;;;;;;;;5120861;27;20397;-62
2022/05/24 11:37:45;;;;;;;4.72;2.40;;;;;;;;;;5121255;27;20138;-62
2022/05/24 11:40:32;;;;;;;5.45;2.13;;;;;;;;;;5120113;27;20133;-62
2022/05/24 11:42:59;;;;;;;7.28;2.30;;;;;;;;;;5118779;27;20103;-62
2022/05/24 11:45:28;;;;;;;4.07;2.33;;;;;;;;;;5119475;27;20567;-62
2022/05/24 11:47:56;;;;;;;17.83;3.47;;;;;;;;;;5123845;27;20599;-62
2022/05/24 11:50:31;;;;;;;5.10;2.33;;;;;;;;;;5119066;27;20059;-62
2022/05/24 11:53:15;;;;;;;10.02;4.35;;;;;;;;;;5108051;27;20809;-62
2022/05/24 11:55:56;;;;;;;10.32;2.83;;;;;;;;;;5102996;27;20162;-62
2022/05/24 11:58:21;;;;;;;6.30;2.63;;;;;;;;;;5111949;27;20075;-62
2022/05/24 12:00:55;;;;;;;4.53;1.83;;;;;;;;;;5111564;27;20097;-62
2022/05/24 12:09:11;;;;;;;10.95;2.03;;;;;;;;;;5120531;27;20141;-63
2022/05/24 12:11:37;;;;;;;20.30;2.97;;;;;;;;;;5117772;27;20039;-62
2022/05/24 12:14:14;;;;;;;4.32;2.63;;;;;;;;;;5121922;27;20539;-63
2022/05/24 12:17:05;;;;;;;6.10;3.05;;;;;;;;;;5114025;27;20123;-62
2022/05/24 12:19:43;;;;;;;7.82;2.67;;;;;;;;;;5116275;27;20035;-62
2022/05/24 12:22:08;;;;;;;4.88;1.75;;;;;;;;;;5112102;27;20079;-62
2022/05/24 12:24:44;;;;;;;6.40;2.42;;;;;;;;;;5113453;27;20052;-62
2022/05/24 12:27:27;;;;;;;8.93;2.88;;;;;;;;;;5114033;27;20119;-63
2022/05/24 12:29:57;;;;;;;9.13;3.42;;;;;;;;;;5116967;27;20796;-63
2022/05/24 12:32:23;;;;;;;25.27;4.10;;;;;;;;;;5108012;27;20039;-63
2022/05/24 12:34:49;;;;;;;12.20;2.40;;;;;;;;;;5119957;27;20044;-63
2022/05/24 12:37:23;;;;;;;14.93;3.95;;;;;;;;;;5114663;27;20054;-63
2022/05/24 12:40:08;;;;;;;11.27;2.65;;;;;;;;;;5113374;27;20067;-63
2022/05/24 12:42:34;;;;;;;7.50;2.55;;;;;;;;;;5104266;27;20048;-63
2022/05/24 12:45:05;;;;;;;4.03;2.97;;;;;;;;;;5115333;27;20047;-63
2022/05/24 12:47:30;;;;;;;3.50;2.28;;;;;;;;;;5119966;27;20070;-63
2022/05/24 12:49:58;;;;;;;8.20;2.40;;;;;;;;;;5120657;27;20074;-63
2022/05/24 12:52:28;;;;;;;7.72;2.28;;;;;;;;;;5119889;27;20570;-63
2022/05/24 12:54:54;;;;;;;5.83;1.73;;;;;;;;;;5119382;27;20066;-63
2022/05/24 12:57:28;;;;;;;7.65;1.70;;;;;;;;;;5120754;27;20359;-63
2022/05/24 12:59:58;;;;;;;7.30;3.00;;;;;;;;;;5120265;27;20095;-63
2022/05/24 13:02:38;;;;;;;4.63;2.27;;;;;;;;;;5109772;27;20046;-63
2022/05/24 13:05:03;;;;;;;7.97;2.83;;;;;;;;;;5116424;27;20757;-63
2022/05/24 13:07:34;;;;;;;10.48;1.90;;;;;;;;;;5114895;27;20130;-63
2022/05/24 13:09:59;;;;;;;5.47;1.77;;;;;;;;;;5111390;27;20837;-63
2022/05/24 13:12:25;;;;;;;11.32;3.40;;;;;;;;;;5110238;27;20039;-63
2022/05/24 13:14:58;;;;;;;6.10;3.03;;;;;;;;;;5118114;27;20040;-63
2022/05/24 13:17:28;;;;;;;4.85;1.58;;;;;;;;;;5118968;27;20099;-63
2022/05/24 13:19:53;;;;;;;3.90;1.95;;;;;;;;;;5114679;27;20125;-63
2022/05/24 13:22:19;;;;;;;20.23;2.95;;;;;;;;;;5115315;27;20122;-63
2022/05/24 13:24:54;;;;;;;12.65;2.58;;;;;;;;;;5119092;27;20115;-63
2022/05/24 13:27:20;;;;;;;15.68;2.95;;;;;;;;;;5120463;27;20052;-63
2022/05/24 13:35:23;;;;;;;10.50;3.05;;;;;;;;;;5117534;27;20058;-63
2022/05/24 13:37:50;;;;;;;5.28;2.85;;;;;;;;;;5118922;27;20039;-63
2022/05/24 13:40:16;;;;;;;6.32;1.65;;;;;;;;;;5118765;27;20044;-63
2022/05/24 13:42:55;;;;;;;7.00;2.55;;;;;;;;;;5117295;27;20038;-63
2022/05/24 13:45:27;;;;;;;9.93;4.53;;;;;;;;;;5112934;27;20058;-63
2022/05/24 13:47:54;;;;;;;9.40;2.72;;;;;;;;;;5117008;27;20058;-65
2022/05/24 13:50:25;;;;;;;18.75;2.47;;;;;;;;;;5116357;27;20036;-63
2022/05/24 13:52:50;;;;;;;11.45;3.20;;;;;;;;;;5114505;27;20048;-63
2022/05/24 13:55:18;;;;;;;5.05;2.15;;;;;;;;;;5114286;27;20058;-63
2022/05/24 13:57:46;;;;;;;4.30;1.52;;;;;;;;;;5117481;27;20065;-63
2022/05/24 14:00:19;;;;;;;11.15;3.45;;;;;;;;;;5117309;27;20046;-63
2022/05/24 14:02:46;;;;;;;11.32;4.28;;;;;;;;;;5117214;27;20161;-63
2022/05/24 14:05:30;;;;;;;11.20;2.85;;;;;;;;;;5116627;27;20043;-63
2022/05/24 14:07:55;;;;;;;19.38;3.70;;;;;;;;;;5115097;27;20092;-64
2022/05/24 14:10:21;;;;;;;7.60;3.47;;;;;;;;;;5111471;27;20036;-63
2022/05/24 14:12:46;;;;;;;8.07;1.60;;;;;;;;;;5109925;27;20035;-63
2022/05/24 14:15:11;;;;;;;8.02;2.13;;;;;;;;;;5117602;27;20079;-63
2022/05/24 14:17:37;;;;;;;14.02;3.10;;;;;;;;;;5118571;27;20035;-63
2022/05/24 14:20:03;;;;;;;5.13;2.08;;;;;;;;;;5116669;27;20035;-63
2022/05/24 14:22:29;;;;;;;13.27;2.95;;;;;;;;;;5112489;27;20063;-69
2022/05/24 14:24:54;;;;;;;7.65;3.22;;;;;;;;;;5110405;27;20538;-69
2022/05/24 14:27:19;;;;;;;7.28;2.30;;;;;;;;;;5115501;27;20047;-70
2022/05/24 14:29:45;;;;;;;3.90;1.85;;;;;;;;;;5119690;27;20109;-64
2022/05/24 14:32:11;;;;;;;27.08;5.18;;;;;;;;;;5105733;27;20460;-63
2022/05/24 14:34:36;;;;;;;3.08;1.60;;;;;;;;;;5109365;28;20047;-63
2022/05/24 14:37:03;;;;;;;4.70;2.58;;;;;;;;;;5110790;28;20091;-63
2022/05/24 14:39:28;;;;;;;7.45;4.25;;;;;;;;;;5108663;27;20044;-63
2022/05/24 14:41:54;;;;;;;10.23;2.45;;;;;;;;;;5110300;27;20071;-64
2022/05/24 14:44:31;;;;;;;11.35;2.15;;;;;;;;;;5104188;27;20031;-64
2022/05/24 14:46:56;;;;;;;17.92;2.95;;;;;;;;;;5116402;28;20460;-64
2022/05/24 14:49:22;;;;;;;12.45;3.15;;;;;;;;;;5117283;28;20115;-77
2022/05/24 14:51:47;;;;;;;14.70;4.30;;;;;;;;;;5118754;28;20067;-76
2022/05/24 14:54:13;;;;;;;11.23;2.85;;;;;;;;;;5121091;27;20093;-64
2022/05/24 14:56:38;;;;;;;10.45;3.92;;;;;;;;;;5109761;28;20046;-76
2022/05/24 14:59:04;;;;;;;4.10;2.22;;;;;;;;;;5116577;28;20043;-72
2022/05/24 15:01:30;;;;;;;19.77;3.40;;;;;;;;;;5118259;28;20039;-64
2022/05/24 15:03:55;;;;;;;7.18;3.47;;;;;;;;;;5114911;28;20140;-67
2022/05/24 15:06:20;;;;;;;4.40;1.80;;;;;;;;;;5117013;28;20055;-66
2022/05/24 15:17:03;;;;;;;13.52;3.85;;;;;;;;;;5118425;28;20104;-64
2022/05/24 15:19:28;;;;;;;6.97;2.17;;;;;;;;;;5116218;28;20058;-66
2022/05/24 15:21:54;;;;;;;12.23;10.65;;;;;;;;;;5113557;27;20071;-66
2022/05/24 15:24:31;;;;;;;17.23;8.93;;;;;;;;;;5116965;28;20047;-65
2022/05/24 15:26:58;;;;;;;7.15;3.70;;;;;;;;;;5114899;28;20054;-65
2022/05/24 15:29:24;;;;;;;13.23;5.32;;;;;;;;;;5115789;27;20067;-63
2022/05/24 15:31:50;;;;;;;6.15;2.28;;;;;;;;;;5112249;28;20209;-64
2022/05/24 15:34:15;;;;;;;13.38;4.22;;;;;;;;;;5115865;28;20061;-64
2022/05/24 15:36:41;;;;;;;8.43;2.67;;;;;;;;;;5117395;28;20054;-63
2022/05/24 15:39:07;;;;;;;7.85;3.22;;;;;;;;;;5118000;27;20039;-64
2022/05/24 15:41:32;;;;;;;10.93;3.95;;;;;;;;;;5120821;27;20036;-63
2022/05/24 15:43:58;;;;;;;11.77;4.65;;;;;;;;;;5121223;27;20108;-64